sensor_id;sensor_type;location;lat;lon;timestamp;P1;durP1;ratioP1;P2;durP2;ratioP2
69906;SDS011;57190;47.918;8.112;2023-05-23T00:00:35;9.88;;;9.07;;
69906;SDS011;57190;47.918;8.112;2023-05-23T00:03:02;9.32;;;8.73;;
69906;SDS011;57190;47.918;8.112;2023-05-23T00:05:28;10.15;;;9.35;;
69906;SDS011;57190;47.918;8.112;2023-05-23T00:07:53;10.50;;;9.70;;
69906;SDS011;57190;47.918;8.112;2023-05-23T00:10:19;9.57;;;8.88;;
69906;SDS011;57190;47.918;8.112;2023-05-23T00:12:46;10.52;;;9.77;;
69906;SDS011;57190;47.918;8.112;2023-05-23T00:15:12;9.85;;;9.15;;
69906;SDS011;57190;47.918;8.112;2023-05-23T00:17:38;10.82;;;10.02;;
69906;SDS011;57190;47.918;8.112;2023-05-23T00:20:04;9.80;;;9.10;;
69906;SDS011;57190;47.918;8.112;2023-05-23T00:22:33;10.15;;;9.35;;
69906;SDS011;57190;47.918;8.112;2023-05-23T00:25:00;9.63;;;8.93;;
69906;SDS011;57190;47.918;8.112;2023-05-23T00:27:27;10.15;;;9.45;;
69906;SDS011;57190;47.918;8.112;2023-05-23T00:29:52;9.15;;;8.38;;
69906;SDS011;57190;47.918;8.112;2023-05-23T00:32:18;10.68;;;9.77;;
69906;SDS011;57190;47.918;8.112;2023-05-23T00:34:43;9.73;;;9.02;;
69906;SDS011;57190;47.918;8.112;2023-05-23T00:37:09;9.63;;;8.93;;
69906;SDS011;57190;47.918;8.112;2023-05-23T00:39:35;9.07;;;8.38;;
69906;SDS011;57190;47.918;8.112;2023-05-23T00:42:03;8.85;;;8.25;;
69906;SDS011;57190;47.918;8.112;2023-05-23T00:44:29;8.57;;;7.97;;
69906;SDS011;57190;47.918;8.112;2023-05-23T00:46:55;9.82;;;9.13;;
69906;SDS011;57190;47.918;8.112;2023-05-23T00:49:21;9.23;;;8.52;;
69906;SDS011;57190;47.918;8.112;2023-05-23T00:51:48;8.23;;;7.63;;
69906;SDS011;57190;47.918;8.112;2023-05-23T00:54:15;9.88;;;8.95;;
69906;SDS011;57190;47.918;8.112;2023-05-23T00:56:45;9.15;;;8.30;;
69906;SDS011;57190;47.918;8.112;2023-05-23T00:59:10;8.40;;;7.70;;
69906;SDS011;57190;47.918;8.112;2023-05-23T01:01:37;9.90;;;9.00;;
69906;SDS011;57190;47.918;8.112;2023-05-23T01:04:04;8.25;;;7.65;;
69906;SDS011;57190;47.918;8.112;2023-05-23T01:06:30;9.02;;;8.32;;
69906;SDS011;57190;47.918;8.112;2023-05-23T01:08:57;9.80;;;9.10;;
69906;SDS011;57190;47.918;8.112;2023-05-23T01:11:28;10.05;;;9.35;;
69906;SDS011;57190;47.918;8.112;2023-05-23T01:14:18;9.95;;;9.05;;
69906;SDS011;57190;47.918;8.112;2023-05-23T01:17:01;10.32;;;9.43;;
69906;SDS011;57190;47.918;8.112;2023-05-23T01:28:18;10.43;;;9.52;;
69906;SDS011;57190;47.918;8.112;2023-05-23T01:30:46;12.18;;;11.27;;
69906;SDS011;57190;47.918;8.112;2023-05-23T01:33:15;11.75;;;10.85;;
69906;SDS011;57190;47.918;8.112;2023-05-23T01:35:42;9.77;;;9.07;;
69906;SDS011;57190;47.918;8.112;2023-05-23T01:38:08;10.55;;;9.65;;
69906;SDS011;57190;47.918;8.112;2023-05-23T01:40:35;11.38;;;10.48;;
69906;SDS011;57190;47.918;8.112;2023-05-23T01:43:01;10.35;;;9.45;;
69906;SDS011;57190;47.918;8.112;2023-05-23T01:45:27;11.32;;;10.43;;
69906;SDS011;57190;47.918;8.112;2023-05-23T01:47:54;10.90;;;10.10;;
69906;SDS011;57190;47.918;8.112;2023-05-23T01:50:20;9.75;;;9.05;;
69906;SDS011;57190;47.918;8.112;2023-05-23T01:52:47;10.88;;;10.07;;
69906;SDS011;57190;47.918;8.112;2023-05-23T01:55:15;11.27;;;10.48;;
69906;SDS011;57190;47.918;8.112;2023-05-23T01:57:43;11.10;;;10.23;;
69906;SDS011;57190;47.918;8.112;2023-05-23T02:00:13;10.98;;;10.13;;
69906;SDS011;57190;47.918;8.112;2023-05-23T02:02:39;10.02;;;9.38;;
69906;SDS011;57190;47.918;8.112;2023-05-23T02:05:05;11.43;;;10.38;;
69906;SDS011;57190;47.918;8.112;2023-05-23T02:07:31;10.63;;;9.77;;
69906;SDS011;57190;47.918;8.112;2023-05-23T02:09:56;11.63;;;10.70;;
69906;SDS011;57190;47.918;8.112;2023-05-23T02:12:22;11.82;;;10.85;;
69906;SDS011;57190;47.918;8.112;2023-05-23T02:14:48;11.82;;;10.93;;
69906;SDS011;57190;47.918;8.112;2023-05-23T02:17:16;12.15;;;11.13;;
69906;SDS011;57190;47.918;8.112;2023-05-23T02:19:42;11.45;;;10.65;;
69906;SDS011;57190;47.918;8.112;2023-05-23T02:22:07;13.02;;;11.90;;
69906;SDS011;57190;47.918;8.112;2023-05-23T02:24:33;12.20;;;11.30;;
69906;SDS011;57190;47.918;8.112;2023-05-23T02:26:59;12.27;;;11.27;;
69906;SDS011;57190;47.918;8.112;2023-05-23T02:29:24;12.52;;;11.52;;
69906;SDS011;57190;47.918;8.112;2023-05-23T02:31:50;12.63;;;11.65;;
69906;SDS011;57190;47.918;8.112;2023-05-23T02:34:15;12.25;;;11.35;;
69906;SDS011;57190;47.918;8.112;2023-05-23T02:36:40;12.82;;;11.77;;
69906;SDS011;57190;47.918;8.112;2023-05-23T02:39:06;14.15;;;13.07;;
69906;SDS011;57190;47.918;8.112;2023-05-23T02:41:31;11.65;;;10.68;;
69906;SDS011;57190;47.918;8.112;2023-05-23T02:43:57;12.05;;;11.18;;
69906;SDS011;57190;47.918;8.112;2023-05-23T02:46:23;12.23;;;11.32;;
69906;SDS011;57190;47.918;8.112;2023-05-23T02:48:49;11.50;;;10.70;;
69906;SDS011;57190;47.918;8.112;2023-05-23T02:51:14;11.80;;;10.80;;
69906;SDS011;57190;47.918;8.112;2023-05-23T02:53:40;11.93;;;11.02;;
69906;SDS011;57190;47.918;8.112;2023-05-23T02:56:06;12.25;;;11.43;;
69906;SDS011;57190;47.918;8.112;2023-05-23T02:58:32;12.02;;;11.13;;
69906;SDS011;57190;47.918;8.112;2023-05-23T03:01:02;11.93;;;10.93;;
69906;SDS011;57190;47.918;8.112;2023-05-23T03:03:28;12.20;;;11.20;;
69906;SDS011;57190;47.918;8.112;2023-05-23T03:05:55;15.32;;;14.02;;
69906;SDS011;57190;47.918;8.112;2023-05-23T03:11:45;15.57;;;14.38;;
69906;SDS011;57190;47.918;8.112;2023-05-23T03:14:11;15.65;;;14.18;;
69906;SDS011;57190;47.918;8.112;2023-05-23T03:16:36;15.95;;;14.75;;
69906;SDS011;57190;47.918;8.112;2023-05-23T03:19:02;16.20;;;14.82;;
69906;SDS011;57190;47.918;8.112;2023-05-23T03:21:29;13.93;;;12.82;;
69906;SDS011;57190;47.918;8.112;2023-05-23T03:23:55;14.43;;;13.23;;
69906;SDS011;57190;47.918;8.112;2023-05-23T03:26:21;15.40;;;14.10;;
69906;SDS011;57190;47.918;8.112;2023-05-23T03:28:47;15.50;;;14.30;;
69906;SDS011;57190;47.918;8.112;2023-05-23T03:31:13;15.80;;;14.52;;
69906;SDS011;57190;47.918;8.112;2023-05-23T03:33:39;14.80;;;13.70;;
69906;SDS011;57190;47.918;8.112;2023-05-23T03:36:05;15.70;;;14.40;;
69906;SDS011;57190;47.918;8.112;2023-05-23T03:38:31;14.10;;;12.77;;
69906;SDS011;57190;47.918;8.112;2023-05-23T03:40:56;14.27;;;13.18;;
69906;SDS011;57190;47.918;8.112;2023-05-23T03:43:22;14.20;;;13.10;;
69906;SDS011;57190;47.918;8.112;2023-05-23T03:45:47;13.05;;;11.90;;
69906;SDS011;57190;47.918;8.112;2023-05-23T03:48:13;12.88;;;11.82;;
69906;SDS011;57190;47.918;8.112;2023-05-23T03:50:38;15.60;;;14.27;;
69906;SDS011;57190;47.918;8.112;2023-05-23T03:53:04;16.35;;;14.95;;
69906;SDS011;57190;47.918;8.112;2023-05-23T03:55:30;13.93;;;12.73;;
69906;SDS011;57190;47.918;8.112;2023-05-23T03:57:56;14.70;;;13.50;;
69906;SDS011;57190;47.918;8.112;2023-05-23T04:00:21;14.23;;;13.07;;
69906;SDS011;57190;47.918;8.112;2023-05-23T04:02:46;14.02;;;12.85;;
69906;SDS011;57190;47.918;8.112;2023-05-23T04:05:14;13.80;;;12.65;;
69906;SDS011;57190;47.918;8.112;2023-05-23T04:07:40;14.55;;;13.38;;
69906;SDS011;57190;47.918;8.112;2023-05-23T04:10:06;14.50;;;13.30;;
69906;SDS011;57190;47.918;8.112;2023-05-23T04:12:33;14.10;;;12.93;;
69906;SDS011;57190;47.918;8.112;2023-05-23T04:14:59;15.35;;;14.15;;
69906;SDS011;57190;47.918;8.112;2023-05-23T04:17:25;14.00;;;12.98;;
69906;SDS011;57190;47.918;8.112;2023-05-23T04:19:54;14.07;;;12.93;;
69906;SDS011;57190;47.918;8.112;2023-05-23T04:22:20;15.50;;;14.20;;
69906;SDS011;57190;47.918;8.112;2023-05-23T04:24:45;14.57;;;13.25;;
69906;SDS011;57190;47.918;8.112;2023-05-23T04:27:11;15.55;;;14.32;;
69906;SDS011;57190;47.918;8.112;2023-05-23T04:29:37;14.27;;;13.18;;
69906;SDS011;57190;47.918;8.112;2023-05-23T04:32:04;14.35;;;13.30;;
69906;SDS011;57190;47.918;8.112;2023-05-23T04:34:30;14.35;;;13.25;;
69906;SDS011;57190;47.918;8.112;2023-05-23T04:36:59;14.48;;;13.35;;
69906;SDS011;57190;47.918;8.112;2023-05-23T04:39:27;14.40;;;13.20;;
69906;SDS011;57190;47.918;8.112;2023-05-23T04:41:56;14.25;;;13.15;;
69906;SDS011;57190;47.918;8.112;2023-05-23T04:44:22;14.27;;;13.15;;
69906;SDS011;57190;47.918;8.112;2023-05-23T04:46:48;14.00;;;12.88;;
69906;SDS011;57190;47.918;8.112;2023-05-23T04:49:14;14.02;;;12.68;;
69906;SDS011;57190;47.918;8.112;2023-05-23T04:51:40;13.27;;;12.27;;
69906;SDS011;57190;47.918;8.112;2023-05-23T04:54:06;14.27;;;13.18;;
69906;SDS011;57190;47.918;8.112;2023-05-23T04:56:31;15.00;;;13.68;;
69906;SDS011;57190;47.918;8.112;2023-05-23T04:58:57;14.73;;;13.52;;
69906;SDS011;57190;47.918;8.112;2023-05-23T05:01:22;13.85;;;12.65;;
69906;SDS011;57190;47.918;8.112;2023-05-23T05:03:48;15.05;;;13.85;;
69906;SDS011;57190;47.918;8.112;2023-05-23T05:06:15;14.80;;;13.60;;
69906;SDS011;57190;47.918;8.112;2023-05-23T05:08:41;12.63;;;11.63;;
69906;SDS011;57190;47.918;8.112;2023-05-23T05:21:21;16.23;;;14.77;;
69906;SDS011;57190;47.918;8.112;2023-05-23T05:23:46;16.98;;;15.57;;
69906;SDS011;57190;47.918;8.112;2023-05-23T05:26:12;16.08;;;14.80;;
69906;SDS011;57190;47.918;8.112;2023-05-23T05:28:37;16.33;;;14.93;;
69906;SDS011;57190;47.918;8.112;2023-05-23T05:31:03;15.73;;;14.32;;
69906;SDS011;57190;47.918;8.112;2023-05-23T05:33:29;16.33;;;14.95;;
69906;SDS011;57190;47.918;8.112;2023-05-23T05:36:00;15.50;;;14.30;;
69906;SDS011;57190;47.918;8.112;2023-05-23T05:38:26;15.05;;;13.85;;
69906;SDS011;57190;47.918;8.112;2023-05-23T05:40:52;17.17;;;15.77;;
69906;SDS011;57190;47.918;8.112;2023-05-23T05:43:17;15.10;;;14.00;;
69906;SDS011;57190;47.918;8.112;2023-05-23T05:45:43;17.17;;;15.88;;
69906;SDS011;57190;47.918;8.112;2023-05-23T05:48:08;16.20;;;15.00;;
69906;SDS011;57190;47.918;8.112;2023-05-23T05:50:34;15.63;;;14.35;;
69906;SDS011;57190;47.918;8.112;2023-05-23T05:52:59;16.38;;;15.07;;
69906;SDS011;57190;47.918;8.112;2023-05-23T05:55:25;15.43;;;14.23;;
69906;SDS011;57190;47.918;8.112;2023-05-23T05:57:50;15.23;;;14.13;;
69906;SDS011;57190;47.918;8.112;2023-05-23T06:00:16;14.75;;;13.43;;
69906;SDS011;57190;47.918;8.112;2023-05-23T06:02:43;14.40;;;13.35;;
69906;SDS011;57190;47.918;8.112;2023-05-23T06:05:15;15.45;;;14.25;;
69906;SDS011;57190;47.918;8.112;2023-05-23T06:07:41;13.32;;;12.13;;
69906;SDS011;57190;47.918;8.112;2023-05-23T06:10:07;14.48;;;13.38;;
69906;SDS011;57190;47.918;8.112;2023-05-23T06:12:36;14.73;;;13.73;;
69906;SDS011;57190;47.918;8.112;2023-05-23T06:15:02;14.25;;;13.07;;
69906;SDS011;57190;47.918;8.112;2023-05-23T06:17:27;15.43;;;14.23;;
69906;SDS011;57190;47.918;8.112;2023-05-23T06:19:53;14.38;;;13.27;;
69906;SDS011;57190;47.918;8.112;2023-05-23T06:22:18;13.93;;;12.82;;
69906;SDS011;57190;47.918;8.112;2023-05-23T06:24:44;15.52;;;14.23;;
69906;SDS011;57190;47.918;8.112;2023-05-23T06:27:10;14.65;;;13.45;;
69906;SDS011;57190;47.918;8.112;2023-05-23T06:29:36;13.52;;;12.50;;
69906;SDS011;57190;47.918;8.112;2023-05-23T06:32:02;15.57;;;14.38;;
69906;SDS011;57190;47.918;8.112;2023-05-23T06:34:27;16.25;;;15.05;;
69906;SDS011;57190;47.918;8.112;2023-05-23T06:36:53;15.55;;;14.30;;
69906;SDS011;57190;47.918;8.112;2023-05-23T06:39:19;14.98;;;13.75;;
69906;SDS011;57190;47.918;8.112;2023-05-23T06:41:45;16.23;;;14.93;;
69906;SDS011;57190;47.918;8.112;2023-05-23T06:44:11;15.93;;;14.63;;
69906;SDS011;57190;47.918;8.112;2023-05-23T06:46:36;14.93;;;13.77;;
69906;SDS011;57190;47.918;8.112;2023-05-23T06:49:02;14.13;;;13.05;;
69906;SDS011;57190;47.918;8.112;2023-05-23T06:51:27;15.27;;;13.95;;
69906;SDS011;57190;47.918;8.112;2023-05-23T06:53:53;14.95;;;13.75;;
69906;SDS011;57190;47.918;8.112;2023-05-23T06:56:20;15.48;;;14.18;;
69906;SDS011;57190;47.918;8.112;2023-05-23T06:58:47;15.52;;;14.23;;
69906;SDS011;57190;47.918;8.112;2023-05-23T07:01:12;15.63;;;14.32;;
69906;SDS011;57190;47.918;8.112;2023-05-23T07:03:38;15.40;;;14.15;;
69906;SDS011;57190;47.918;8.112;2023-05-23T07:06:05;14.13;;;12.98;;
69906;SDS011;57190;47.918;8.112;2023-05-23T07:08:31;14.95;;;13.75;;
69906;SDS011;57190;47.918;8.112;2023-05-23T07:10:57;15.07;;;13.65;;
69906;SDS011;57190;47.918;8.112;2023-05-23T07:13:23;15.18;;;13.98;;
69906;SDS011;57190;47.918;8.112;2023-05-23T07:15:48;15.15;;;13.95;;
69906;SDS011;57190;47.918;8.112;2023-05-23T07:18:13;14.48;;;13.38;;
69906;SDS011;57190;47.918;8.112;2023-05-23T07:20:39;14.40;;;13.30;;
69906;SDS011;57190;47.918;8.112;2023-05-23T07:23:04;15.25;;;14.05;;
69906;SDS011;57190;47.918;8.112;2023-05-23T07:25:30;15.00;;;13.80;;
69906;SDS011;57190;47.918;8.112;2023-05-23T07:27:55;16.05;;;14.75;;
69906;SDS011;57190;47.918;8.112;2023-05-23T07:30:21;17.75;;;16.30;;
69906;SDS011;57190;47.918;8.112;2023-05-23T07:32:47;17.50;;;16.17;;
69906;SDS011;57190;47.918;8.112;2023-05-23T07:35:13;17.10;;;15.65;;
69906;SDS011;57190;47.918;8.112;2023-05-23T07:37:39;17.15;;;15.75;;
69906;SDS011;57190;47.918;8.112;2023-05-23T07:40:05;17.80;;;16.45;;
69906;SDS011;57190;47.918;8.112;2023-05-23T07:42:33;17.08;;;15.77;;
69906;SDS011;57190;47.918;8.112;2023-05-23T07:44:59;17.95;;;16.55;;
69906;SDS011;57190;47.918;8.112;2023-05-23T07:47:25;16.40;;;15.13;;
69906;SDS011;57190;47.918;8.112;2023-05-23T07:49:51;16.45;;;15.07;;
69906;SDS011;57190;47.918;8.112;2023-05-23T07:52:17;15.10;;;13.90;;
69906;SDS011;57190;47.918;8.112;2023-05-23T07:54:42;17.60;;;16.20;;
69906;SDS011;57190;47.918;8.112;2023-05-23T07:57:08;17.77;;;16.38;;
69906;SDS011;57190;47.918;8.112;2023-05-23T07:59:34;19.08;;;17.58;;
69906;SDS011;57190;47.918;8.112;2023-05-23T08:02:00;17.92;;;16.35;;
69906;SDS011;57190;47.918;8.112;2023-05-23T08:04:27;18.13;;;16.63;;
69906;SDS011;57190;47.918;8.112;2023-05-23T08:06:53;16.90;;;15.52;;
69906;SDS011;57190;47.918;8.112;2023-05-23T08:09:19;17.25;;;15.75;;
69906;SDS011;57190;47.918;8.112;2023-05-23T08:11:48;16.27;;;14.95;;
69906;SDS011;57190;47.918;8.112;2023-05-23T08:14:14;16.88;;;15.48;;
69906;SDS011;57190;47.918;8.112;2023-05-23T08:16:39;15.98;;;14.68;;
69906;SDS011;57190;47.918;8.112;2023-05-23T08:19:05;17.13;;;15.73;;
69906;SDS011;57190;47.918;8.112;2023-05-23T08:21:30;16.75;;;15.23;;
69906;SDS011;57190;47.918;8.112;2023-05-23T08:23:56;17.90;;;16.50;;
69906;SDS011;57190;47.918;8.112;2023-05-23T08:26:22;15.50;;;14.30;;
69906;SDS011;57190;47.918;8.112;2023-05-23T08:28:47;15.43;;;14.23;;
69906;SDS011;57190;47.918;8.112;2023-05-23T08:31:13;14.43;;;13.27;;
69906;SDS011;57190;47.918;8.112;2023-05-23T08:33:39;15.52;;;14.20;;
69906;SDS011;57190;47.918;8.112;2023-05-23T08:36:04;13.98;;;12.95;;
69906;SDS011;57190;47.918;8.112;2023-05-23T08:38:30;15.32;;;14.13;;
69906;SDS011;57190;47.918;8.112;2023-05-23T08:40:55;16.35;;;15.05;;
69906;SDS011;57190;47.918;8.112;2023-05-23T08:43:25;14.35;;;13.23;;
69906;SDS011;57190;47.918;8.112;2023-05-23T08:45:51;14.60;;;13.40;;
69906;SDS011;57190;47.918;8.112;2023-05-23T08:48:18;13.93;;;12.75;;
69906;SDS011;57190;47.918;8.112;2023-05-23T08:50:44;14.15;;;12.95;;
69906;SDS011;57190;47.918;8.112;2023-05-23T08:53:12;14.02;;;12.82;;
69906;SDS011;57190;47.918;8.112;2023-05-23T08:55:47;14.93;;;13.73;;
69906;SDS011;57190;47.918;8.112;2023-05-23T08:58:16;13.68;;;12.68;;
69906;SDS011;57190;47.918;8.112;2023-05-23T09:00:46;13.88;;;12.88;;
69906;SDS011;57190;47.918;8.112;2023-05-23T09:03:12;14.13;;;13.02;;
69906;SDS011;57190;47.918;8.112;2023-05-23T09:05:38;14.70;;;13.50;;
69906;SDS011;57190;47.918;8.112;2023-05-23T09:08:04;14.43;;;13.32;;
69906;SDS011;57190;47.918;8.112;2023-05-23T09:10:29;13.10;;;12.00;;
69906;SDS011;57190;47.918;8.112;2023-05-23T09:12:55;15.98;;;14.75;;
69906;SDS011;57190;47.918;8.112;2023-05-23T09:15:22;14.82;;;13.60;;
69906;SDS011;57190;47.918;8.112;2023-05-23T09:17:48;16.08;;;14.75;;
69906;SDS011;57190;47.918;8.112;2023-05-23T09:20:14;17.95;;;16.55;;
69906;SDS011;57190;47.918;8.112;2023-05-23T09:22:44;16.80;;;15.40;;
69906;SDS011;57190;47.918;8.112;2023-05-23T09:25:11;17.17;;;15.65;;
69906;SDS011;57190;47.918;8.112;2023-05-23T09:27:37;16.63;;;15.32;;
69906;SDS011;57190;47.918;8.112;2023-05-23T09:30:06;16.55;;;15.35;;
69906;SDS011;57190;47.918;8.112;2023-05-23T09:32:32;15.80;;;14.50;;
69906;SDS011;57190;47.918;8.112;2023-05-23T09:34:58;16.20;;;14.90;;
69906;SDS011;57190;47.918;8.112;2023-05-23T09:37:31;16.27;;;15.07;;
69906;SDS011;57190;47.918;8.112;2023-05-23T09:40:10;18.63;;;17.02;;
69906;SDS011;57190;47.918;8.112;2023-05-23T09:42:41;18.08;;;16.67;;
69906;SDS011;57190;47.918;8.112;2023-05-23T09:45:08;18.65;;;17.15;;
69906;SDS011;57190;47.918;8.112;2023-05-23T09:47:34;17.10;;;15.80;;
69906;SDS011;57190;47.918;8.112;2023-05-23T09:50:00;17.45;;;16.05;;
69906;SDS011;57190;47.918;8.112;2023-05-23T09:52:26;18.85;;;17.45;;
69906;SDS011;57190;47.918;8.112;2023-05-23T09:54:52;20.17;;;18.48;;
69906;SDS011;57190;47.918;8.112;2023-05-23T09:57:18;19.08;;;17.50;;
69906;SDS011;57190;47.918;8.112;2023-05-23T09:59:51;18.52;;;17.13;;
69906;SDS011;57190;47.918;8.112;2023-05-23T10:02:22;19.10;;;17.52;;
69906;SDS011;57190;47.918;8.112;2023-05-23T10:05:14;19.98;;;18.27;;
69906;SDS011;57190;47.918;8.112;2023-05-23T10:13:24;16.92;;;15.65;;
69906;SDS011;57190;47.918;8.112;2023-05-23T10:18:29;17.30;;;15.90;;
69906;SDS011;57190;47.918;8.112;2023-05-23T10:21:11;17.30;;;15.93;;
69906;SDS011;57190;47.918;8.112;2023-05-23T10:23:39;19.17;;;17.67;;
69906;SDS011;57190;47.918;8.112;2023-05-23T10:26:06;20.88;;;19.23;;
69906;SDS011;57190;47.918;8.112;2023-05-23T10:28:32;18.98;;;17.50;;
69906;SDS011;57190;47.918;8.112;2023-05-23T10:30:58;16.95;;;15.57;;
69906;SDS011;57190;47.918;8.112;2023-05-23T10:33:25;17.75;;;16.35;;
69906;SDS011;57190;47.918;8.112;2023-05-23T10:36:07;17.58;;;16.08;;
69906;SDS011;57190;47.918;8.112;2023-05-23T10:41:11;18.55;;;17.05;;
69906;SDS011;57190;47.918;8.112;2023-05-23T10:43:49;19.83;;;18.23;;
69906;SDS011;57190;47.918;8.112;2023-05-23T10:46:21;18.58;;;17.17;;
69906;SDS011;57190;47.918;8.112;2023-05-23T10:48:47;18.50;;;17.00;;
69906;SDS011;57190;47.918;8.112;2023-05-23T10:51:18;19.98;;;18.42;;
69906;SDS011;57190;47.918;8.112;2023-05-23T10:53:44;19.83;;;18.33;;
69906;SDS011;57190;47.918;8.112;2023-05-23T10:56:23;16.48;;;15.27;;
69906;SDS011;57190;47.918;8.112;2023-05-23T10:58:52;17.52;;;16.23;;
69906;SDS011;57190;47.918;8.112;2023-05-23T11:01:19;19.77;;;18.17;;
69906;SDS011;57190;47.918;8.112;2023-05-23T11:06:27;20.10;;;18.60;;
69906;SDS011;57190;47.918;8.112;2023-05-23T11:09:04;18.63;;;17.23;;
69906;SDS011;57190;47.918;8.112;2023-05-23T11:16:55;21.77;;;20.15;;
69906;SDS011;57190;47.918;8.112;2023-05-23T11:19:21;21.98;;;20.38;;
69906;SDS011;57190;47.918;8.112;2023-05-23T11:21:53;20.70;;;19.00;;
69906;SDS011;57190;47.918;8.112;2023-05-23T11:24:46;19.70;;;18.00;;
69906;SDS011;57190;47.918;8.112;2023-05-23T11:27:17;19.75;;;18.23;;
69906;SDS011;57190;47.918;8.112;2023-05-23T11:30:05;18.75;;;17.25;;
69906;SDS011;57190;47.918;8.112;2023-05-23T11:32:32;18.45;;;17.05;;
69906;SDS011;57190;47.918;8.112;2023-05-23T11:35:10;18.65;;;17.23;;
69906;SDS011;57190;47.918;8.112;2023-05-23T11:37:39;16.92;;;15.70;;
69906;SDS011;57190;47.918;8.112;2023-05-23T11:43:11;20.13;;;18.42;;
69906;SDS011;57190;47.918;8.112;2023-05-23T11:45:39;19.65;;;18.15;;
69906;SDS011;57190;47.918;8.112;2023-05-23T11:50:31;20.20;;;18.50;;
69906;SDS011;57190;47.918;8.112;2023-05-23T11:52:56;18.58;;;17.02;;
69906;SDS011;57190;47.918;8.112;2023-05-23T11:55:22;17.77;;;16.55;;
69906;SDS011;57190;47.918;8.112;2023-05-23T11:57:48;19.05;;;17.73;;
69906;SDS011;57190;47.918;8.112;2023-05-23T12:00:15;17.20;;;15.80;;
69906;SDS011;57190;47.918;8.112;2023-05-23T12:02:42;17.77;;;16.38;;
69906;SDS011;57190;47.918;8.112;2023-05-23T12:05:08;19.40;;;17.83;;
69906;SDS011;57190;47.918;8.112;2023-05-23T12:07:39;18.05;;;16.70;;
69906;SDS011;57190;47.918;8.112;2023-05-23T12:10:09;18.92;;;17.42;;
69906;SDS011;57190;47.918;8.112;2023-05-23T12:12:35;17.52;;;15.88;;
69906;SDS011;57190;47.918;8.112;2023-05-23T12:15:24;17.08;;;15.88;;
69906;SDS011;57190;47.918;8.112;2023-05-23T12:17:53;18.20;;;16.83;;
69906;SDS011;57190;47.918;8.112;2023-05-23T12:20:21;16.33;;;15.18;;
69906;SDS011;57190;47.918;8.112;2023-05-23T12:22:47;16.40;;;15.18;;
69906;SDS011;57190;47.918;8.112;2023-05-23T12:25:12;15.90;;;14.70;;
69906;SDS011;57190;47.918;8.112;2023-05-23T12:27:39;17.88;;;16.58;;
69906;SDS011;57190;47.918;8.112;2023-05-23T12:30:12;15.55;;;14.52;;
69906;SDS011;57190;47.918;8.112;2023-05-23T12:32:39;16.15;;;14.73;;
69906;SDS011;57190;47.918;8.112;2023-05-23T12:35:09;16.17;;;14.98;;
69906;SDS011;57190;47.918;8.112;2023-05-23T12:37:48;15.07;;;13.98;;
69906;SDS011;57190;47.918;8.112;2023-05-23T12:45:17;12.75;;;11.85;;
69906;SDS011;57190;47.918;8.112;2023-05-23T12:47:44;14.15;;;13.05;;
69906;SDS011;57190;47.918;8.112;2023-05-23T12:50:10;14.48;;;13.43;;
69906;SDS011;57190;47.918;8.112;2023-05-23T12:52:36;14.15;;;13.07;;
69906;SDS011;57190;47.918;8.112;2023-05-23T12:55:02;12.82;;;11.95;;
69906;SDS011;57190;47.918;8.112;2023-05-23T12:57:27;15.00;;;13.90;;
69906;SDS011;57190;47.918;8.112;2023-05-23T12:59:53;15.77;;;14.63;;
69906;SDS011;57190;47.918;8.112;2023-05-23T13:02:18;14.82;;;13.82;;
69906;SDS011;57190;47.918;8.112;2023-05-23T13:04:44;13.52;;;12.63;;
69906;SDS011;57190;47.918;8.112;2023-05-23T13:07:13;14.50;;;13.55;;
69906;SDS011;57190;47.918;8.112;2023-05-23T13:09:38;15.45;;;14.23;;
69906;SDS011;57190;47.918;8.112;2023-05-23T13:12:04;13.82;;;12.88;;
69906;SDS011;57190;47.918;8.112;2023-05-23T13:14:29;13.85;;;12.95;;
69906;SDS011;57190;47.918;8.112;2023-05-23T13:16:55;14.30;;;13.20;;
69906;SDS011;57190;47.918;8.112;2023-05-23T13:19:20;12.88;;;11.98;;
69906;SDS011;57190;47.918;8.112;2023-05-23T13:21:46;12.73;;;11.73;;
69906;SDS011;57190;47.918;8.112;2023-05-23T13:24:11;14.32;;;13.25;;
69906;SDS011;57190;47.918;8.112;2023-05-23T13:26:37;13.45;;;12.55;;
69906;SDS011;57190;47.918;8.112;2023-05-23T13:29:02;13.38;;;12.48;;
69906;SDS011;57190;47.918;8.112;2023-05-23T13:31:28;13.73;;;12.82;;
69906;SDS011;57190;47.918;8.112;2023-05-23T13:33:54;12.35;;;11.45;;
69906;SDS011;57190;47.918;8.112;2023-05-23T13:36:20;11.73;;;10.93;;
69906;SDS011;57190;47.918;8.112;2023-05-23T13:38:46;12.75;;;11.85;;
69906;SDS011;57190;47.918;8.112;2023-05-23T13:41:11;14.20;;;13.20;;
69906;SDS011;57190;47.918;8.112;2023-05-23T13:43:37;13.50;;;12.48;;
69906;SDS011;57190;47.918;8.112;2023-05-23T13:46:03;12.35;;;11.55;;
69906;SDS011;57190;47.918;8.112;2023-05-23T13:48:28;12.05;;;11.25;;
69906;SDS011;57190;47.918;8.112;2023-05-23T13:50:54;12.32;;;11.40;;
69906;SDS011;57190;47.918;8.112;2023-05-23T13:53:20;12.82;;;11.93;;
69906;SDS011;57190;47.918;8.112;2023-05-23T13:55:46;11.98;;;11.13;;
69906;SDS011;57190;47.918;8.112;2023-05-23T13:58:11;12.13;;;11.32;;
69906;SDS011;57190;47.918;8.112;2023-05-23T14:00:37;12.23;;;11.35;;
69906;SDS011;57190;47.918;8.112;2023-05-23T14:03:03;12.20;;;11.35;;
69906;SDS011;57190;47.918;8.112;2023-05-23T14:05:29;11.35;;;10.60;;
69906;SDS011;57190;47.918;8.112;2023-05-23T14:07:54;11.43;;;10.63;;
69906;SDS011;57190;47.918;8.112;2023-05-23T14:10:20;10.75;;;9.88;;
69906;SDS011;57190;47.918;8.112;2023-05-23T14:12:46;11.77;;;10.88;;
69906;SDS011;57190;47.918;8.112;2023-05-23T14:15:11;10.95;;;10.20;;
69906;SDS011;57190;47.918;8.112;2023-05-23T14:17:37;11.57;;;10.77;;
69906;SDS011;57190;47.918;8.112;2023-05-23T14:20:03;10.88;;;9.98;;
69906;SDS011;57190;47.918;8.112;2023-05-23T14:22:29;11.88;;;10.98;;
69906;SDS011;57190;47.918;8.112;2023-05-23T14:24:56;10.77;;;9.93;;
69906;SDS011;57190;47.918;8.112;2023-05-23T14:27:22;10.38;;;9.68;;
69906;SDS011;57190;47.918;8.112;2023-05-23T14:29:47;11.85;;;11.00;;
69906;SDS011;57190;47.918;8.112;2023-05-23T14:32:13;11.25;;;10.55;;
69906;SDS011;57190;47.918;8.112;2023-05-23T14:34:39;10.57;;;9.77;;
69906;SDS011;57190;47.918;8.112;2023-05-23T14:37:05;10.50;;;9.80;;
69906;SDS011;57190;47.918;8.112;2023-05-23T14:39:30;11.05;;;10.25;;
69906;SDS011;57190;47.918;8.112;2023-05-23T14:41:56;10.68;;;9.98;;
69906;SDS011;57190;47.918;8.112;2023-05-23T14:44:21;9.80;;;9.00;;
69906;SDS011;57190;47.918;8.112;2023-05-23T14:46:47;10.65;;;9.95;;
69906;SDS011;57190;47.918;8.112;2023-05-23T14:49:14;10.88;;;10.07;;
69906;SDS011;57190;47.918;8.112;2023-05-23T14:51:41;9.65;;;8.75;;
69906;SDS011;57190;47.918;8.112;2023-05-23T14:54:07;9.82;;;9.23;;
69906;SDS011;57190;47.918;8.112;2023-05-23T14:56:33;9.98;;;9.27;;
69906;SDS011;57190;47.918;8.112;2023-05-23T14:59:03;9.85;;;9.25;;
69906;SDS011;57190;47.918;8.112;2023-05-23T15:01:29;11.00;;;10.18;;
69906;SDS011;57190;47.918;8.112;2023-05-23T15:03:54;10.20;;;9.40;;
69906;SDS011;57190;47.918;8.112;2023-05-23T15:06:20;9.23;;;8.63;;
69906;SDS011;57190;47.918;8.112;2023-05-23T15:08:45;8.68;;;8.18;;
69906;SDS011;57190;47.918;8.112;2023-05-23T15:11:11;8.55;;;7.80;;
69906;SDS011;57190;47.918;8.112;2023-05-23T15:13:37;9.57;;;8.90;;
69906;SDS011;57190;47.918;8.112;2023-05-23T15:16:02;10.05;;;9.13;;